Time;durP1;ratioP1;P1;durP2;ratioP2;P2;SDS_P1;SDS_P2;PMS_P1;PMS_P2;Temp;Humidity;BMP_temperature;BMP_pressure;BME280_temperature;BME280_humidity;BME280_pressure;Samples;Min_cycle;Max_cycle;Signal;HPM_P1;HPM_P2
2023/02/26 00:01:31;;;;;;;;;;;;;;;;;;5071017;28;1706;-39
2023/02/26 00:04:00;;;;;;;;;;;;;;;;;;5071050;28;1662;-38
2023/02/26 00:06:30;;;;;;;;;;;;;;;;;;5088535;28;1731;-38
2023/02/26 00:08:58;;;;;;;;;;;;;;;;;;5090941;28;1777;-39
2023/02/26 00:11:25;;;;;;;;;;;;;;;;;;5073150;28;2027;-38
2023/02/26 00:13:52;;;;;;;;;;;;;;;;;;5090978;28;2118;-39
2023/02/26 00:16:33;;;;;;;;;;;;;;;;;;5090964;28;1992;-38
2023/02/26 00:19:02;;;;;;;;;;;;;;;;;;5090980;28;1906;-39
2023/02/26 00:21:29;;;;;;;;;;;;;;;;;;5090989;28;1748;-38
2023/02/26 00:23:57;;;;;;;;;;;;;;;;;;5091042;28;1262;-39
2023/02/26 00:26:24;;;;;;;;;;;;;;;;;;5090731;28;1984;-38
2023/02/26 00:28:52;;;;;;;;;;;;;;;;;;5091017;28;1424;-38
2023/02/26 00:31:23;;;;;;;;;;;;;;;;;;5090856;28;1973;-38
2023/02/26 00:33:54;;;;;;;;;;;;;;;;;;5090830;28;1473;-40
2023/02/26 00:36:23;;;;;;;;;;;;;;;;;;5090946;28;1703;-39
2023/02/26 00:39:00;;;;;;;;;;;;;;;;;;5090526;28;1738;-39
2023/02/26 00:41:28;;;;;;;;;;;;;;;;;;5090694;28;1685;-39
2023/02/26 00:43:55;;;;;;;;;;;;;;;;;;5090659;28;2014;-38
2023/02/26 00:46:41;;;;;;;;;;;;;;;;;;5090918;28;2062;-39
2023/02/26 00:49:25;;;;;;;;;;;;;;;;;;5072130;28;1792;-38
2023/02/26 00:52:02;;;;;;;;;;;;;;;;;;5072405;28;1573;-39
2023/02/26 00:54:29;;;;;;;;;;;;;;;;;;5072477;28;2045;-38
2023/02/26 00:56:57;;;;;;;;;;;;;;;;;;5090539;28;1688;-38
2023/02/26 00:59:24;;;;;;;;;;;;;;;;;;5090179;28;1976;-39
2023/02/26 01:01:52;;;;;;;;;;;;;;;;;;5091284;28;1972;-38
2023/02/26 01:04:21;;;;;;;;;;;;;;;;;;5094619;28;1715;-39
2023/02/26 01:06:50;;;;;;;;;;;;;;;;;;5074398;28;2064;-38
2023/02/26 01:09:29;;;;;;;;;;;;;;;;;;5074022;28;1977;-38
2023/02/26 01:12:00;;;;;;;;;;;;;;;;;;5073825;28;1827;-38
2023/02/26 01:14:28;;;;;;;;;;;;;;;;;;5073898;28;2086;-41
2023/02/26 01:17:05;;;;;;;;;;;;;;;;;;5073756;28;2333;-39
2023/02/26 01:19:40;;;;;;;;;;;;;;;;;;5055896;28;1951;-38
2023/02/26 01:22:11;;;;;;;;;;;;;;;;;;5073877;28;2076;-38
2023/02/26 01:24:39;;;;;;;;;;;;;;;;;;5055436;28;2143;-39
2023/02/26 01:27:08;;;;;;;;;;;;;;;;;;5073473;28;1986;-38
2023/02/26 01:29:35;;;;;;;;;;;;;;;;;;5073960;28;1575;-40
2023/02/26 01:32:23;;;;;;;;;;;;;;;;;;5055745;28;2011;-38
2023/02/26 01:34:56;;;;;;;;;;;;;;;;;;5087428;28;1691;-39
2023/02/26 01:37:32;;;;;;;;;;;;;;;;;;5093834;28;1692;-39
2023/02/26 01:40:18;;;;;;;;;;;;;;;;;;5093749;28;1907;-37
2023/02/26 01:42:49;;;;;;;;;;;;;;;;;;5075703;28;1987;-38
2023/02/26 01:45:19;;;;;;;;;;;;;;;;;;5094226;28;1688;-37
2023/02/26 01:47:58;;;;;;;;;;;;;;;;;;5093491;28;1907;-39
2023/02/26 01:50:28;;;;;;;;;;;;;;;;;;5093613;28;1922;-40
2023/02/26 01:53:14;;;;;;;;;;;;;;;;;;5075382;28;2081;-39
2023/02/26 01:55:43;;;;;;;;;;;;;;;;;;5075235;28;2105;-40
2023/02/26 01:58:11;;;;;;;;;;;;;;;;;;5075633;28;2015;-41
2023/02/26 02:00:38;;;;;;;;;;;;;;;;;;5075246;28;2021;-45
2023/02/26 02:03:05;;;;;;;;;;;;;;;;;;5075179;28;1866;-39
2023/02/26 02:06:02;;;;;;;;;;;;;;;;;;5064774;28;1942;-39
2023/02/26 02:08:32;;;;;;;;;;;;;;;;;;5046414;28;2058;-39
2023/02/26 02:10:59;;;;;;;;;;;;;;;;;;5054874;28;1716;-40
2023/02/26 02:13:34;;;;;;;;;;;;;;;;;;5053848;28;1928;-38
2023/02/26 02:16:20;;;;;;;;;;;;;;;;;;5072818;28;1414;-39
2023/02/26 02:19:06;;;;;;;;;;;;;;;;;;5054724;28;1496;-39
2023/02/26 02:21:40;;;;;;;;;;;;;;;;;;5054648;28;1973;-39
2023/02/26 02:24:13;;;;;;;;;;;;;;;;;;5054797;28;1719;-38
2023/02/26 02:26:57;;;;;;;;;;;;;;;;;;5072905;28;1801;-39
2023/02/26 02:29:31;;;;;;;;;;;;;;;;;;5054457;28;1658;-43
2023/02/26 02:32:06;;;;;;;;;;;;;;;;;;5054666;28;1810;-39
2023/02/26 02:34:34;;;;;;;;;;;;;;;;;;5072430;28;1629;-38
2023/02/26 02:37:13;;;;;;;;;;;;;;;;;;5072475;28;1153;-38
2023/02/26 02:39:43;;;;;;;;;;;;;;;;;;5072221;28;2033;-39
2023/02/26 02:42:13;;;;;;;;;;;;;;;;;;5054454;28;2163;-39
2023/02/26 02:44:42;;;;;;;;;;;;;;;;;;5054313;28;2135;-38
2023/02/26 02:47:10;;;;;;;;;;;;;;;;;;5072473;28;1960;-38
2023/02/26 02:49:41;;;;;;;;;;;;;;;;;;5072315;28;1716;-38
2023/02/26 02:52:15;;;;;;;;;;;;;;;;;;5053932;28;1837;-39
2023/02/26 02:54:48;;;;;;;;;;;;;;;;;;5054080;28;1734;-39
2023/02/26 02:57:31;;;;;;;;;;;;;;;;;;5071951;28;1907;-38
2023/02/26 03:00:07;;;;;;;;;;;;;;;;;;5053883;28;2225;-39
2023/02/26 03:02:40;;;;;;;;;;;;;;;;;;5071965;28;1708;-38
2023/02/26 03:05:08;;;;;;;;;;;;;;;;;;5071724;28;1838;-39
2023/02/26 03:07:39;;;;;;;;;;;;;;;;;;5071955;28;1950;-39
2023/02/26 03:10:07;;;;;;;;;;;;;;;;;;5071725;28;1669;-39
2023/02/26 03:12:35;;;;;;;;;;;;;;;;;;5071920;28;1998;-38
2023/02/26 03:15:02;;;;;;;;;;;;;;;;;;5071290;28;1953;-39
2023/02/26 03:17:39;;;;;;;;;;;;;;;;;;5070173;28;1856;-41
2023/02/26 03:20:10;;;;;;;;;;;;;;;;;;5071073;28;2252;-39
2023/02/26 03:22:49;;;;;;;;;;;;;;;;;;5068800;28;2198;-38
2023/02/26 03:25:27;;;;;;;;;;;;;;;;;;5053000;28;2141;-39
2023/02/26 03:28:08;;;;;;;;;;;;;;;;;;5062953;28;1942;-38
2023/02/26 03:30:43;;;;;;;;;;;;;;;;;;5073523;28;2684;-38
2023/02/26 03:33:13;;;;;;;;;;;;;;;;;;5091467;28;2076;-39
2023/02/26 03:35:40;;;;;;;;;;;;;;;;;;5073481;28;1862;-37
2023/02/26 03:38:11;;;;;;;;;;;;;;;;;;5073300;28;1985;-39
2023/02/26 03:40:47;;;;;;;;;;;;;;;;;;5073471;28;1911;-39
2023/02/26 03:43:21;;;;;;;;;;;;;;;;;;5073145;28;2219;-46
2023/02/26 03:45:50;;;;;;;;;;;;;;;;;;5073287;28;2321;-39
2023/02/26 03:48:20;;;;;;;;;;;;;;;;;;5091220;28;1867;-39
2023/02/26 03:50:52;;;;;;;;;;;;;;;;;;5073285;28;2102;-39
2023/02/26 03:53:58;;;;;;;;;;;;;;;;;;5073498;28;1744;-39
2023/02/26 03:56:31;;;;;;;;;;;;;;;;;;5073250;28;2032;-39
2023/02/26 03:59:05;;;;;;;;;;;;;;;;;;5091383;28;2048;-38
2023/02/26 04:01:47;;;;;;;;;;;;;;;;;;5091211;28;1979;-38
2023/02/26 04:04:19;;;;;;;;;;;;;;;;;;5073052;28;1925;-37
2023/02/26 04:06:46;;;;;;;;;;;;;;;;;;5053037;28;2025;-38
2023/02/26 04:09:14;;;;;;;;;;;;;;;;;;5070780;28;2140;-38
2023/02/26 04:11:42;;;;;;;;;;;;;;;;;;5070680;28;1802;-38
2023/02/26 04:14:10;;;;;;;;;;;;;;;;;;5052847;28;1805;-38
2023/02/26 04:16:41;;;;;;;;;;;;;;;;;;5052848;28;2399;-37
2023/02/26 04:19:08;;;;;;;;;;;;;;;;;;5052806;28;2127;-38
2023/02/26 04:21:36;;;;;;;;;;;;;;;;;;5070760;28;2031;-38
2023/02/26 04:24:05;;;;;;;;;;;;;;;;;;5052892;28;1821;-39
2023/02/26 04:26:33;;;;;;;;;;;;;;;;;;5064125;28;2138;-39
2023/02/26 04:29:01;;;;;;;;;;;;;;;;;;5090896;28;1835;-43
2023/02/26 04:31:28;;;;;;;;;;;;;;;;;;5056427;28;1792;-38
2023/02/26 04:33:56;;;;;;;;;;;;;;;;;;5091140;28;1578;-38
2023/02/26 04:36:23;;;;;;;;;;;;;;;;;;5072193;28;1469;-38
2023/02/26 04:38:50;;;;;;;;;;;;;;;;;;5094948;28;1866;-39
2023/02/26 04:41:18;;;;;;;;;;;;;;;;;;5076604;28;2126;-39
2023/02/26 04:43:47;;;;;;;;;;;;;;;;;;5076811;28;1919;-39
2023/02/26 04:46:35;;;;;;;;;;;;;;;;;;5076998;28;1948;-38
2023/02/26 04:49:02;;;;;;;;;;;;;;;;;;5094866;28;1884;-39
2023/02/26 04:51:29;;;;;;;;;;;;;;;;;;5076686;28;1861;-38
2023/02/26 04:53:57;;;;;;;;;;;;;;;;;;5094887;28;1928;-37
2023/02/26 04:56:24;;;;;;;;;;;;;;;;;;5093456;28;1293;-38
2023/02/26 04:58:52;;;;;;;;;;;;;;;;;;5094528;28;1961;-38
2023/02/26 05:01:24;;;;;;;;;;;;;;;;;;5076036;28;1952;-37
2023/02/26 05:03:51;;;;;;;;;;;;;;;;;;5076147;28;1983;-38
2023/02/26 05:06:19;;;;;;;;;;;;;;;;;;5072911;28;2016;-39
2023/02/26 05:08:46;;;;;;;;;;;;;;;;;;5074133;28;1750;-37
2023/02/26 05:11:13;;;;;;;;;;;;;;;;;;5055828;28;1956;-38
2023/02/26 05:13:40;;;;;;;;;;;;;;;;;;5056056;28;1360;-37
2023/02/26 05:16:08;;;;;;;;;;;;;;;;;;5073839;28;2062;-39
2023/02/26 05:18:35;;;;;;;;;;;;;;;;;;5056087;28;2069;-38
2023/02/26 05:21:03;;;;;;;;;;;;;;;;;;5073806;28;1981;-37
2023/02/26 05:23:31;;;;;;;;;;;;;;;;;;5072839;28;1705;-37
2023/02/26 05:25:59;;;;;;;;;;;;;;;;;;5073991;28;1690;-38
2023/02/26 05:28:26;;;;;;;;;;;;;;;;;;5055465;28;1737;-38
2023/02/26 05:30:55;;;;;;;;;;;;;;;;;;5055865;28;2185;-40
2023/02/26 05:33:22;;;;;;;;;;;;;;;;;;5073658;28;1457;-38
2023/02/26 05:35:49;;;;;;;;;;;;;;;;;;5073654;28;2247;-38
2023/02/26 05:38:16;;;;;;;;;;;;;;;;;;5073593;28;1427;-39
2023/02/26 05:40:44;;;;;;;;;;;;;;;;;;5073444;28;2012;-38
2023/02/26 05:43:11;;;;;;;;;;;;;;;;;;5073130;28;1780;-38
2023/02/26 05:45:38;;;;;;;;;;;;;;;;;;5073439;28;1851;-39
2023/02/26 05:48:06;;;;;;;;;;;;;;;;;;5073514;28;1915;-38
2023/02/26 05:50:33;;;;;;;;;;;;;;;;;;5073403;28;1807;-39
2023/02/26 05:53:00;;;;;;;;;;;;;;;;;;5073471;28;1983;-38
2023/02/26 05:55:27;;;;;;;;;;;;;;;;;;5073183;28;1478;-38
2023/02/26 05:57:54;;;;;;;;;;;;;;;;;;5073420;28;1647;-38
2023/02/26 06:00:22;;;;;;;;;;;;;;;;;;5073244;28;1508;-39
2023/02/26 06:02:49;;;;;;;;;;;;;;;;;;5073283;28;1912;-39
2023/02/26 06:05:17;;;;;;;;;;;;;;;;;;5081157;28;1821;-35
2023/02/26 06:07:44;;;;;;;;;;;;;;;;;;5093187;28;1673;-38
2023/02/26 06:10:13;;;;;;;;;;;;;;;;;;5093121;28;1515;-39
2023/02/26 06:12:40;;;;;;;;;;;;;;;;;;5092951;28;1811;-38
2023/02/26 06:15:08;;;;;;;;;;;;;;;;;;5092883;28;1392;-39
2023/02/26 06:17:36;;;;;;;;;;;;;;;;;;5093097;28;1960;-38
2023/02/26 06:20:06;;;;;;;;;;;;;;;;;;5093111;28;1601;-38
2023/02/26 06:22:33;;;;;;;;;;;;;;;;;;5092819;28;2014;-39
2023/02/26 06:25:01;;;;;;;;;;;;;;;;;;5092997;28;1342;-42
2023/02/26 06:27:28;;;;;;;;;;;;;;;;;;5092975;28;1711;-37
2023/02/26 06:29:55;;;;;;;;;;;;;;;;;;5092841;28;2008;-37
2023/02/26 06:32:22;;;;;;;;;;;;;;;;;;5092802;28;1553;-38
2023/02/26 06:34:50;;;;;;;;;;;;;;;;;;5092445;28;2253;-39
2023/02/26 06:37:17;;;;;;;;;;;;;;;;;;5093243;28;1458;-37
2023/02/26 06:39:45;;;;;;;;;;;;;;;;;;5078134;28;2264;-40
2023/02/26 06:42:13;;;;;;;;;;;;;;;;;;5072418;28;1929;-38
2023/02/26 06:44:40;;;;;;;;;;;;;;;;;;5072328;28;1907;-38
2023/02/26 06:47:07;;;;;;;;;;;;;;;;;;5072228;28;2007;-38
2023/02/26 06:49:35;;;;;;;;;;;;;;;;;;5072112;28;1536;-39
2023/02/26 06:52:02;;;;;;;;;;;;;;;;;;5088646;28;2194;-38
2023/02/26 06:54:29;;;;;;;;;;;;;;;;;;5074512;28;2028;-38
2023/02/26 06:56:56;;;;;;;;;;;;;;;;;;5092182;28;2009;-39
2023/02/26 06:59:23;;;;;;;;;;;;;;;;;;5091560;28;2105;-38
2023/02/26 07:01:51;;;;;;;;;;;;;;;;;;5092199;28;2033;-38
2023/02/26 07:04:18;;;;;;;;;;;;;;;;;;5091943;28;1644;-38
2023/02/26 07:06:46;;;;;;;;;;;;;;;;;;5072016;28;1669;-38
2023/02/26 07:09:13;;;;;;;;;;;;;;;;;;5071998;28;1623;-38
2023/02/26 07:11:40;;;;;;;;;;;;;;;;;;5071743;28;2120;-39
2023/02/26 07:14:07;;;;;;;;;;;;;;;;;;5072013;28;1444;-38
2023/02/26 07:16:34;;;;;;;;;;;;;;;;;;5071728;28;1979;-39
2023/02/26 07:19:02;;;;;;;;;;;;;;;;;;5071304;28;1573;-39
2023/02/26 07:21:29;;;;;;;;;;;;;;;;;;5071468;28;1911;-39
2023/02/26 07:23:56;;;;;;;;;;;;;;;;;;5071661;28;2130;-38
2023/02/26 07:26:23;;;;;;;;;;;;;;;;;;5071295;28;1701;-38
2023/02/26 07:28:51;;;;;;;;;;;;;;;;;;5071681;28;1869;-38
2023/02/26 07:31:18;;;;;;;;;;;;;;;;;;5071555;28;2115;-37
2023/02/26 07:33:45;;;;;;;;;;;;;;;;;;5071380;28;1399;-39
2023/02/26 07:36:13;;;;;;;;;;;;;;;;;;5071234;28;1669;-39
2023/02/26 07:38:40;;;;;;;;;;;;;;;;;;5071445;28;1499;-39
2023/02/26 07:41:10;;;;;;;;;;;;;;;;;;5071484;28;1909;-37
2023/02/26 07:43:37;;;;;;;;;;;;;;;;;;5071582;28;1985;-38
2023/02/26 07:46:04;;;;;;;;;;;;;;;;;;5071030;28;1549;-38
2023/02/26 07:48:31;;;;;;;;;;;;;;;;;;5070850;28;2196;-38
2023/02/26 07:50:58;;;;;;;;;;;;;;;;;;5071140;28;1800;-43
2023/02/26 07:53:26;;;;;;;;;;;;;;;;;;5053421;28;2268;-39
2023/02/26 07:55:53;;;;;;;;;;;;;;;;;;5071281;28;2095;-39
2023/02/26 07:58:20;;;;;;;;;;;;;;;;;;5071105;28;1599;-38
2023/02/26 08:00:47;;;;;;;;;;;;;;;;;;5071169;28;1826;-38
2023/02/26 08:03:14;;;;;;;;;;;;;;;;;;5071060;28;1998;-39
2023/02/26 08:05:41;;;;;;;;;;;;;;;;;;5070940;28;2036;-39
2023/02/26 08:08:09;;;;;;;;;;;;;;;;;;5081547;28;2086;-40
2023/02/26 08:10:38;;;;;;;;;;;;;;;;;;5090996;28;1789;-39
2023/02/26 08:13:07;;;;;;;;;;;;;;;;;;5090692;28;1921;-39
2023/02/26 08:15:34;;;;;;;;;;;;;;;;;;5091280;28;1772;-39
2023/02/26 08:18:02;;;;;;;;;;;;;;;;;;5090981;28;1913;-39
2023/02/26 08:20:29;;;;;;;;;;;;;;;;;;5090988;28;2045;-41
2023/02/26 08:22:56;;;;;;;;;;;;;;;;;;5090833;28;2013;-39
2023/02/26 08:25:23;;;;;;;;;;;;;;;;;;5090842;28;2140;-38
2023/02/26 08:27:50;;;;;;;;;;;;;;;;;;5091474;28;2555;-39
2023/02/26 08:30:18;;;;;;;;;;;;;;;;;;5091076;28;1479;-39
2023/02/26 08:32:45;;;;;;;;;;;;;;;;;;5091112;28;2171;-39
2023/02/26 08:35:12;;;;;;;;;;;;;;;;;;5091041;28;1976;-39
2023/02/26 08:37:39;;;;;;;;;;;;;;;;;;5082329;28;1829;-39
2023/02/26 08:40:09;;;;;;;;;;;;;;;;;;5070574;28;2160;-38
2023/02/26 08:42:37;;;;;;;;;;;;;;;;;;5070534;28;1906;-39
2023/02/26 08:45:04;;;;;;;;;;;;;;;;;;5070337;28;2075;-40
2023/02/26 08:47:32;;;;;;;;;;;;;;;;;;5070596;28;2063;-39
2023/02/26 08:50:02;;;;;;;;;;;;;;;;;;5070979;28;1344;-38
2023/02/26 08:52:29;;;;;;;;;;;;;;;;;;5070511;28;1726;-40
2023/02/26 08:54:56;;;;;;;;;;;;;;;;;;5070724;28;1666;-40
2023/02/26 08:57:24;;;;;;;;;;;;;;;;;;5070659;28;1643;-42
2023/02/26 08:59:51;;;;;;;;;;;;;;;;;;5070560;28;1824;-41
2023/02/26 09:02:18;;;;;;;;;;;;;;;;;;5070439;28;2009;-41
2023/02/26 09:04:46;;;;;;;;;;;;;;;;;;5074234;28;2452;-39
2023/02/26 09:07:13;;;;;;;;;;;;;;;;;;5090508;28;2000;-40
2023/02/26 09:09:40;;;;;;;;;;;;;;;;;;5091232;28;2161;-42
2023/02/26 09:12:07;;;;;;;;;;;;;;;;;;5090621;28;1865;-41
2023/02/26 09:14:34;;;;;;;;;;;;;;;;;;5090452;28;1675;-39
2023/02/26 09:17:01;;;;;;;;;;;;;;;;;;5090724;28;1958;-39
2023/02/26 09:19:29;;;;;;;;;;;;;;;;;;5090525;28;2143;-40
2023/02/26 09:21:56;;;;;;;;;;;;;;;;;;5089335;28;2015;-44
2023/02/26 09:24:23;;;;;;;;;;;;;;;;;;5077968;28;2300;-42
2023/02/26 09:26:52;;;;;;;;;;;;;;;;;;5073880;28;1859;-44
2023/02/26 09:29:19;;;;;;;;;;;;;;;;;;5078505;28;1925;-41
2023/02/26 09:31:46;;;;;;;;;;;;;;;;;;5073868;28;1402;-40
2023/02/26 09:34:14;;;;;;;;;;;;;;;;;;5073376;28;1847;-42
2023/02/26 09:36:42;;;;;;;;;;;;;;;;;;5074118;28;1968;-42
2023/02/26 09:39:09;;;;;;;;;;;;;;;;;;5073662;28;1978;-40
2023/02/26 09:41:48;;;;;;;;;;;;;;;;;;5073675;28;2286;-41
2023/02/26 09:44:18;;;;;;;;;;;;;;;;;;5056176;28;1402;-41
2023/02/26 09:46:57;;;;;;;;;;;;;;;;;;5073663;28;1541;-41
2023/02/26 09:49:28;;;;;;;;;;;;;;;;;;5073635;28;1409;-42
2023/02/26 09:52:01;;;;;;;;;;;;;;;;;;5072800;28;1934;-41
2023/02/26 09:54:30;;;;;;;;;;;;;;;;;;5072385;28;1977;-42
2023/02/26 09:56:58;;;;;;;;;;;;;;;;;;5073318;28;2045;-43
2023/02/26 09:59:31;;;;;;;;;;;;;;;;;;5073047;28;1834;-40
2023/02/26 10:02:06;;;;;;;;;;;;;;;;;;5072890;28;1972;-42
2023/02/26 10:04:42;;;;;;;;;;;;;;;;;;5075168;28;1796;-41
2023/02/26 10:07:22;;;;;;;;;;;;;;;;;;5093523;28;2013;-47
2023/02/26 10:10:01;;;;;;;;;;;;;;;;;;5093405;28;1957;-43
2023/02/26 10:12:32;;;;;;;;;;;;;;;;;;5093522;28;2173;-50
2023/02/26 10:14:59;;;;;;;;;;;;;;;;;;5093085;28;1662;-42
2023/02/26 10:17:38;;;;;;;;;;;;;;;;;;5093560;28;1893;-40
2023/02/26 10:20:10;;;;;;;;;;;;;;;;;;5092854;28;1687;-46
2023/02/26 10:22:58;;;;;;;;;;;;;;;;;;5093142;28;2203;-46
2023/02/26 10:25:32;;;;;;;;;;;;;;;;;;5062145;28;1425;-45
2023/02/26 10:28:05;;;;;;;;;;;;;;;;;;5092922;28;1893;-48
2023/02/26 10:30:38;;;;;;;;;;;;;;;;;;5092849;28;2121;-43
2023/02/26 10:33:13;;;;;;;;;;;;;;;;;;5081545;28;1672;-43
2023/02/26 10:35:43;;;;;;;;;;;;;;;;;;5091967;28;1616;-45
2023/02/26 10:38:12;;;;;;;;;;;;;;;;;;5093184;28;2103;-40
2023/02/26 10:40:50;;;;;;;;;;;;;;;;;;5092835;28;1893;-43
2023/02/26 10:43:23;;;;;;;;;;;;;;;;;;5092614;28;1955;-42
2023/02/26 10:46:00;;;;;;;;;;;;;;;;;;5074455;28;1930;-48
2023/02/26 10:48:30;;;;;;;;;;;;;;;;;;5092752;28;2238;-44
2023/02/26 10:50:59;;;;;;;;;;;;;;;;;;5092316;28;1712;-48
2023/02/26 10:53:27;;;;;;;;;;;;;;;;;;5092385;28;1624;-43
2023/02/26 10:55:58;;;;;;;;;;;;;;;;;;5092618;28;1901;-42
2023/02/26 10:58:26;;;;;;;;;;;;;;;;;;5092429;28;2184;-45
2023/02/26 11:00:54;;;;;;;;;;;;;;;;;;5092231;28;2115;-45
2023/02/26 11:03:32;;;;;;;;;;;;;;;;;;5092306;28;1906;-47
2023/02/26 11:06:02;;;;;;;;;;;;;;;;;;5077614;28;1912;-39
2023/02/26 11:08:32;;;;;;;;;;;;;;;;;;5072028;28;1977;-46
2023/02/26 11:11:01;;;;;;;;;;;;;;;;;;5071694;28;2149;-48
2023/02/26 11:13:29;;;;;;;;;;;;;;;;;;5071880;28;1998;-40
2023/02/26 11:15:59;;;;;;;;;;;;;;;;;;5071816;28;2130;-40
2023/02/26 11:18:39;;;;;;;;;;;;;;;;;;5071775;28;1988;-40
2023/02/26 11:21:07;;;;;;;;;;;;;;;;;;5071422;28;1823;-38
2023/02/26 11:23:34;;;;;;;;;;;;;;;;;;5071788;28;1913;-40
2023/02/26 11:26:06;;;;;;;;;;;;;;;;;;5071546;28;2047;-43
2023/02/26 11:28:41;;;;;;;;;;;;;;;;;;5071569;28;2241;-39
2023/02/26 11:31:09;;;;;;;;;;;;;;;;;;5073502;28;1622;-43
2023/02/26 11:33:39;;;;;;;;;;;;;;;;;;5091754;28;2157;-42
2023/02/26 11:36:17;;;;;;;;;;;;;;;;;;5091329;28;1628;-40
2023/02/26 11:38:46;;;;;;;;;;;;;;;;;;5091797;28;1806;-40
2023/02/26 11:41:13;;;;;;;;;;;;;;;;;;5091741;28;1549;-40
2023/02/26 11:43:42;;;;;;;;;;;;;;;;;;5091649;28;2074;-40
2023/02/26 11:46:11;;;;;;;;;;;;;;;;;;5091443;28;2049;-40
2023/02/26 11:48:42;;;;;;;;;;;;;;;;;;5076492;28;2078;-40
2023/02/26 11:51:12;;;;;;;;;;;;;;;;;;5071604;28;1824;-39
2023/02/26 11:53:47;;;;;;;;;;;;;;;;;;5071209;28;2239;-40
2023/02/26 11:56:21;;;;;;;;;;;;;;;;;;5071622;28;2258;-43
2023/02/26 11:58:50;;;;;;;;;;;;;;;;;;5071178;28;1648;-41
2023/02/26 12:01:21;;;;;;;;;;;;;;;;;;5071147;28;1838;-41
2023/02/26 12:03:51;;;;;;;;;;;;;;;;;;5053439;28;1939;-42
2023/02/26 12:06:21;;;;;;;;;;;;;;;;;;5087399;28;2016;-40
2023/02/26 12:08:48;;;;;;;;;;;;;;;;;;5091231;28;1919;-40
2023/02/26 12:11:21;;;;;;;;;;;;;;;;;;5091135;28;1930;-40
2023/02/26 12:13:49;;;;;;;;;;;;;;;;;;5091333;28;1983;-40
2023/02/26 12:16:21;;;;;;;;;;;;;;;;;;5091302;28;1978;-40
2023/02/26 12:18:58;;;;;;;;;;;;;;;;;;5091124;28;1722;-40
2023/02/26 12:21:28;;;;;;;;;;;;;;;;;;5091072;28;1879;-42
2023/02/26 12:23:55;;;;;;;;;;;;;;;;;;5086363;28;2004;-40
2023/02/26 12:26:33;;;;;;;;;;;;;;;;;;5070819;28;1526;-45
2023/02/26 12:29:00;;;;;;;;;;;;;;;;;;5070949;28;2322;-40
2023/02/26 12:31:36;;;;;;;;;;;;;;;;;;5075463;28;1783;-40
2023/02/26 12:34:05;;;;;;;;;;;;;;;;;;5090880;28;2314;-41
2023/02/26 12:36:46;;;;;;;;;;;;;;;;;;5090939;28;1991;-40
2023/02/26 12:39:31;;;;;;;;;;;;;;;;;;5087634;28;2007;-40
2023/02/26 12:42:08;;;;;;;;;;;;;;;;;;5070675;28;1817;-41
2023/02/26 12:44:44;;;;;;;;;;;;;;;;;;5070455;28;1989;-40
2023/02/26 12:47:30;;;;;;;;;;;;;;;;;;5070877;28;1913;-40
2023/02/26 12:50:07;;;;;;;;;;;;;;;;;;5070653;28;1886;-40
2023/02/26 12:52:53;;;;;;;;;;;;;;;;;;5052505;28;2115;-41
2023/02/26 12:55:25;;;;;;;;;;;;;;;;;;5070986;28;2165;-41
2023/02/26 12:58:11;;;;;;;;;;;;;;;;;;5071258;28;1573;-40
2023/02/26 13:00:45;;;;;;;;;;;;;;;;;;5074366;28;2060;-40
2023/02/26 13:03:30;;;;;;;;;;;;;;;;;;5074360;28;1978;-41
2023/02/26 13:05:58;;;;;;;;;;;;;;;;;;5087895;28;1687;-41
2023/02/26 13:08:34;;;;;;;;;;;;;;;;;;5094367;28;1709;-40
2023/02/26 13:11:01;;;;;;;;;;;;;;;;;;5076223;28;1883;-40
2023/02/26 13:13:31;;;;;;;;;;;;;;;;;;5094459;28;2139;-41
2023/02/26 13:16:17;;;;;;;;;;;;;;;;;;5094205;28;1991;-41
2023/02/26 13:18:52;;;;;;;;;;;;;;;;;;5094507;28;1651;-41
2023/02/26 13:21:32;;;;;;;;;;;;;;;;;;5062012;28;1882;-42
2023/02/26 13:24:04;;;;;;;;;;;;;;;;;;5073876;28;1978;-41
2023/02/26 13:26:32;;;;;;;;;;;;;;;;;;5073799;28;2139;-41
2023/02/26 13:28:59;;;;;;;;;;;;;;;;;;5073875;28;1746;-42
2023/02/26 13:31:32;;;;;;;;;;;;;;;;;;5073985;28;1946;-41
2023/02/26 13:34:03;;;;;;;;;;;;;;;;;;5073745;28;1779;-42
2023/02/26 13:36:31;;;;;;;;;;;;;;;;;;5073924;28;1989;-42
2023/02/26 13:39:20;;;;;;;;;;;;;;;;;;5073799;28;1853;-41
2023/02/26 13:41:53;;;;;;;;;;;;;;;;;;5073502;28;2131;-41
2023/02/26 13:44:26;;;;;;;;;;;;;;;;;;5073273;28;2129;-42
2023/02/26 13:47:09;;;;;;;;;;;;;;;;;;5073307;28;1774;-42
2023/02/26 13:49:47;;;;;;;;;;;;;;;;;;5055316;28;1755;-41
2023/02/26 13:52:22;;;;;;;;;;;;;;;;;;5073613;28;1346;-41
2023/02/26 13:54:49;;;;;;;;;;;;;;;;;;5079428;28;2199;-41
2023/02/26 13:57:16;;;;;;;;;;;;;;;;;;5094048;28;1918;-41
2023/02/26 13:59:43;;;;;;;;;;;;;;;;;;5093658;28;2091;-41
2023/02/26 14:02:16;;;;;;;;;;;;;;;;;;5092901;28;1813;-42
2023/02/26 14:04:49;;;;;;;;;;;;;;;;;;5090299;28;2298;-40
2023/02/26 14:07:36;;;;;;;;;;;;;;;;;;5073044;28;2221;-41
2023/02/26 14:10:14;;;;;;;;;;;;;;;;;;5072965;28;2037;-41
2023/02/26 14:12:42;;;;;;;;;;;;;;;;;;5089599;28;2009;-41
2023/02/26 14:15:12;;;;;;;;;;;;;;;;;;5093398;28;1787;-41
2023/02/26 14:17:46;;;;;;;;;;;;;;;;;;5075096;28;1845;-43
2023/02/26 14:20:22;;;;;;;;;;;;;;;;;;5073220;28;2005;-42
2023/02/26 14:23:08;;;;;;;;;;;;;;;;;;5072828;28;1978;-40
2023/02/26 14:25:37;;;;;;;;;;;;;;;;;;5072754;28;1806;-41
2023/02/26 14:28:19;;;;;;;;;;;;;;;;;;5072583;28;2299;-43
2023/02/26 14:30:49;;;;;;;;;;;;;;;;;;5073040;28;1829;-41
2023/02/26 14:33:17;;;;;;;;;;;;;;;;;;5092742;28;2193;-41
2023/02/26 14:35:47;;;;;;;;;;;;;;;;;;5092858;28;1786;-41
2023/02/26 14:38:22;;;;;;;;;;;;;;;;;;5092690;28;1940;-41
2023/02/26 14:41:07;;;;;;;;;;;;;;;;;;5093114;28;1899;-41
2023/02/26 14:43:36;;;;;;;;;;;;;;;;;;5092492;28;2173;-41
2023/02/26 14:46:05;;;;;;;;;;;;;;;;;;5092595;28;1608;-41
2023/02/26 14:48:33;;;;;;;;;;;;;;;;;;5092685;28;1708;-41
2023/02/26 14:51:00;;;;;;;;;;;;;;;;;;5092208;28;1905;-42
2023/02/26 14:53:46;;;;;;;;;;;;;;;;;;5092426;28;2078;-44
2023/02/26 14:56:22;;;;;;;;;;;;;;;;;;5092629;28;1591;-41
2023/02/26 14:58:49;;;;;;;;;;;;;;;;;;5092391;28;1696;-41
2023/02/26 15:01:28;;;;;;;;;;;;;;;;;;5092779;28;1612;-42
2023/02/26 15:04:34;;;;;;;;;;;;;;;;;;5092435;28;2119;-40
2023/02/26 15:07:07;;;;;;;;;;;;;;;;;;4990582;28;2098;-39
2023/02/26 15:09:49;;;;;;;;;;;;;;;;;;4990496;28;1994;-40
2023/02/26 15:12:36;;;;;;;;;;;;;;;;;;5053404;28;2038;-41
2023/02/26 15:15:42;;;;;;;;;;;;;;;;;;5071902;28;1982;-41
2023/02/26 15:18:21;;;;;;;;;;;;;;;;;;5009813;28;1482;-44
2023/02/26 15:21:04;;;;;;;;;;;;;;;;;;5009675;28;2046;-40
2023/02/26 15:23:50;;;;;;;;;;;;;;;;;;5051539;28;1962;-41
2023/02/26 15:26:21;;;;;;;;;;;;;;;;;;5070451;28;1864;-41
2023/02/26 15:28:49;;;;;;;;;;;;;;;;;;5071271;28;2167;-40
2023/02/26 15:31:26;;;;;;;;;;;;;;;;;;5075235;28;2150;-41
2023/02/26 15:33:55;;;;;;;;;;;;;;;;;;5092108;28;2137;-40
2023/02/26 15:36:23;;;;;;;;;;;;;;;;;;5088202;28;1969;-40
2023/02/26 15:38:55;;;;;;;;;;;;;;;;;;5071615;28;1986;-41
2023/02/26 15:41:24;;;;;;;;;;;;;;;;;;5071693;28;1978;-39
2023/02/26 15:43:56;;;;;;;;;;;;;;;;;;5071499;28;1918;-40
2023/02/26 15:46:29;;;;;;;;;;;;;;;;;;5071429;28;1420;-44
2023/02/26 15:49:17;;;;;;;;;;;;;;;;;;5071265;28;1444;-51
2023/02/26 15:51:46;;;;;;;;;;;;;;;;;;5064520;28;1863;-40
2023/02/26 15:54:18;;;;;;;;;;;;;;;;;;5071431;28;1933;-39
2023/02/26 15:56:46;;;;;;;;;;;;;;;;;;5071200;28;1950;-41
2023/02/26 15:59:18;;;;;;;;;;;;;;;;;;5071187;28;1532;-40
2023/02/26 16:01:47;;;;;;;;;;;;;;;;;;5071221;28;1458;-39
2023/02/26 16:04:15;;;;;;;;;;;;;;;;;;5070444;28;1981;-40
2023/02/26 16:06:47;;;;;;;;;;;;;;;;;;5071901;28;2005;-40
2023/02/26 16:09:24;;;;;;;;;;;;;;;;;;5071003;28;1845;-50
2023/02/26 16:11:52;;;;;;;;;;;;;;;;;;5071359;28;1911;-42
2023/02/26 16:14:30;;;;;;;;;;;;;;;;;;5070971;28;2194;-47
2023/02/26 16:16:57;;;;;;;;;;;;;;;;;;5070257;28;1852;-41
2023/02/26 16:19:31;;;;;;;;;;;;;;;;;;5071039;28;1824;-40
2023/02/26 16:22:01;;;;;;;;;;;;;;;;;;5070851;28;1764;-40
2023/02/26 16:24:29;;;;;;;;;;;;;;;;;;5070915;28;2031;-41
2023/02/26 16:27:00;;;;;;;;;;;;;;;;;;5070851;28;1953;-40
2023/02/26 16:29:29;;;;;;;;;;;;;;;;;;5070808;28;1987;-43
2023/02/26 16:31:58;;;;;;;;;;;;;;;;;;5079822;28;1995;-41
2023/02/26 16:34:29;;;;;;;;;;;;;;;;;;5094503;28;1707;-40
2023/02/26 16:36:56;;;;;;;;;;;;;;;;;;5095105;28;2065;-38
2023/02/26 16:39:26;;;;;;;;;;;;;;;;;;5095193;28;2096;-39
2023/02/26 16:42:02;;;;;;;;;;;;;;;;;;5095304;28;1828;-40
2023/02/26 16:44:29;;;;;;;;;;;;;;;;;;5095212;28;1969;-40
2023/02/26 16:46:57;;;;;;;;;;;;;;;;;;5094969;28;2015;-40
2023/02/26 16:49:28;;;;;;;;;;;;;;;;;;5095095;28;1779;-41
2023/02/26 16:51:56;;;;;;;;;;;;;;;;;;5094875;28;1929;-42
2023/02/26 16:54:32;;;;;;;;;;;;;;;;;;5095249;28;1943;-40
2023/02/26 16:57:02;;;;;;;;;;;;;;;;;;5094721;28;1645;-40
2023/02/26 16:59:31;;;;;;;;;;;;;;;;;;5094732;28;1875;-41
2023/02/26 17:02:01;;;;;;;;;;;;;;;;;;5094816;28;1494;-40
2023/02/26 17:04:31;;;;;;;;;;;;;;;;;;5093114;28;1975;-40
2023/02/26 17:06:58;;;;;;;;;;;;;;;;;;5081916;28;1880;-41
2023/02/26 17:09:36;;;;;;;;;;;;;;;;;;5095021;28;1374;-40
2023/02/26 17:12:04;;;;;;;;;;;;;;;;;;5076426;28;2301;-39
2023/02/26 17:14:36;;;;;;;;;;;;;;;;;;5083009;28;1828;-42
2023/02/26 17:17:03;;;;;;;;;;;;;;;;;;5073523;28;1699;-41
2023/02/26 17:19:30;;;;;;;;;;;;;;;;;;5074447;28;2342;-41
2023/02/26 17:21:58;;;;;;;;;;;;;;;;;;5074254;28;2084;-41
2023/02/26 17:24:28;;;;;;;;;;;;;;;;;;5073888;28;2507;-39
2023/02/26 17:26:56;;;;;;;;;;;;;;;;;;5073878;28;1492;-41
2023/02/26 17:29:35;;;;;;;;;;;;;;;;;;5073779;28;1771;-40
2023/02/26 17:32:03;;;;;;;;;;;;;;;;;;5083647;28;2028;-40